createdAt,value
2022-10-21T00:03:10.380Z,74.91
2022-10-21T00:13:17.833Z,75.03
2022-10-21T00:23:25.366Z,75.05
2022-10-21T00:33:32.313Z,74.99
2022-10-21T00:43:56.676Z,75.07
2022-10-21T00:54:04.520Z,75.11
2022-10-21T01:04:12.048Z,74.95
2022-10-21T01:14:38.664Z,75.32
2022-10-21T01:24:56.535Z,75.50
2022-10-21T01:35:07.427Z,75.44
2022-10-21T01:45:20.785Z,75.77
2022-10-21T01:55:32.896Z,75.91
2022-10-21T02:05:40.793Z,75.96
2022-10-21T02:15:48.301Z,76.16
2022-10-21T02:25:55.481Z,76.11
2022-10-21T02:36:07.349Z,76.03
2022-10-21T02:46:15.699Z,75.88
2022-10-21T02:56:23.054Z,76.18
2022-10-21T03:06:30.285Z,76.36
2022-10-21T03:16:37.351Z,76.68
2022-10-21T03:26:44.357Z,76.91
2022-10-21T03:36:51.538Z,76.87
2022-10-21T03:46:58.599Z,77.03
2022-10-21T03:57:05.855Z,77.06
2022-10-21T04:07:13.210Z,77.42
2022-10-21T04:17:20.361Z,77.40
2022-10-21T04:27:27.492Z,77.55
2022-10-21T04:37:34.480Z,77.60
2022-10-21T04:47:41.837Z,77.66
2022-10-21T04:57:49.398Z,77.91
2022-10-21T05:07:56.475Z,78.00
2022-10-21T05:18:03.984Z,78.17
2022-10-21T05:28:11.131Z,78.51
2022-10-21T05:38:18.165Z,78.69
2022-10-21T05:48:26.097Z,78.70
2022-10-21T05:58:34.055Z,78.64
2022-10-21T06:08:41.635Z,78.93
2022-10-21T06:18:48.871Z,78.90
2022-10-21T06:28:56.202Z,79.13
2022-10-21T06:39:03.486Z,79.33
2022-10-21T06:49:10.836Z,79.31
2022-10-21T06:59:17.990Z,79.29
2022-10-21T07:09:25.711Z,79.44
2022-10-21T07:19:33.336Z,80.00
2022-10-21T07:29:40.462Z,79.20
2022-10-21T07:39:47.712Z,78.13
2022-10-21T07:49:54.995Z,77.87
2022-10-21T08:00:01.985Z,78.01
2022-10-21T08:10:10.567Z,77.83
2022-10-21T08:20:21.096Z,77.60
2022-10-21T08:30:28.070Z,77.38
2022-10-21T08:40:37.435Z,77.24
2022-10-21T08:50:48.262Z,76.82
2022-10-21T09:00:58.274Z,76.71
2022-10-21T09:11:06.679Z,76.83
2022-10-21T09:21:17.324Z,76.46
2022-10-21T09:31:25.276Z,76.04
2022-10-21T09:41:29.997Z,74.84
2022-10-21T09:51:42.766Z,73.01
2022-10-21T10:01:51.093Z,71.89
2022-10-21T10:11:56.823Z,71.23
2022-10-21T10:22:13.823Z,70.61
2022-10-21T10:42:33.453Z,70.47
2022-10-21T10:52:39.515Z,69.94
2022-10-21T11:02:50.185Z,68.87
2022-10-21T11:12:57.952Z,68.22
2022-10-21T11:53:41.230Z,66.84
2022-10-21T12:03:58.323Z,66.17
2022-10-21T12:14:05.217Z,65.79
2022-10-21T12:24:13.178Z,65.09
2022-10-21T12:44:23.852Z,64.03
2022-10-21T12:54:31.528Z,62.69
2022-10-21T13:04:45.389Z,62.98
2022-10-21T13:14:51.897Z,63.21
2022-10-21T13:24:59.072Z,63.30
2022-10-21T13:46:06.029Z,63.89
2022-10-21T13:56:19.201Z,64.01
2022-10-21T14:06:30.267Z,64.03
2022-10-21T14:16:37.484Z,64.68
2022-10-21T14:26:45.602Z,65.00
2022-10-21T14:36:59.513Z,65.29
2022-10-21T14:57:05.735Z,65.92
2022-10-21T15:07:16.262Z,66.23
2022-10-21T15:17:21.408Z,66.53
2022-10-21T15:27:25.054Z,66.93
2022-10-21T15:37:28.846Z,67.20
2022-10-21T15:47:32.440Z,67.59
2022-10-21T15:57:38.450Z,68.12
2022-10-21T16:07:43.586Z,68.58
2022-10-21T16:17:50.029Z,69.04
2022-10-21T16:27:56.924Z,69.42
2022-10-21T16:38:00.615Z,69.56
2022-10-21T16:48:05.362Z,69.72
2022-10-21T16:58:09.286Z,69.72
2022-10-21T17:08:12.934Z,69.54
2022-10-21T17:18:16.594Z,69.25
2022-10-21T17:28:20.450Z,69.31
2022-10-21T17:38:23.640Z,69.31
2022-10-21T17:48:27.349Z,69.28
2022-10-21T17:58:31.969Z,69.55
2022-10-21T18:08:36.026Z,69.44
2022-10-21T18:28:44.559Z,69.44
2022-10-21T18:48:51.295Z,69.30
2022-10-21T18:58:56.195Z,69.55
2022-10-21T19:09:01.158Z,69.72
2022-10-21T19:19:05.921Z,70.48
2022-10-21T19:29:12.788Z,71.33
2022-10-21T19:39:18.221Z,71.99
2022-10-21T19:49:21.970Z,72.71
2022-10-21T19:59:25.754Z,72.98
2022-10-21T20:09:29.460Z,73.31
2022-10-21T20:19:32.956Z,73.57
2022-10-21T20:29:36.765Z,73.86
2022-10-21T20:39:40.974Z,74.02
2022-10-21T20:49:44.845Z,73.87
2022-10-21T20:59:48.618Z,73.95
2022-10-21T21:10:02.118Z,74.02
2022-10-21T21:20:09.096Z,73.91
2022-10-21T21:30:13.124Z,73.66
2022-10-21T21:40:16.234Z,73.56
2022-10-21T21:50:19.915Z,73.53
2022-10-21T22:00:24.438Z,73.45
2022-10-21T22:10:29.030Z,73.33
2022-10-21T22:20:32.627Z,73.39
2022-10-21T22:30:36.176Z,73.38
2022-10-21T22:40:39.923Z,73.26
2022-10-21T22:50:44.092Z,73.13
2022-10-21T23:00:48.394Z,73.06
2022-10-21T23:10:52.200Z,73.07
2022-10-21T23:20:55.707Z,73.07
2022-10-21T23:31:00.271Z,72.93
2022-10-21T23:41:04.268Z,72.90
2022-10-21T23:51:07.993Z,72.81
